メインページ
METAR-TAF:

METAR-TAF

空港 :

チュニス, チュニジア

チュニス・カルタゴ国際空港

緯度: 36-50N, 経度: 010-14E, 海抜: 3m

現時点の気象観測

当レポートは36分前の04:30(UTC)に作成
変向風 6kt
気温 18°C
湿度 94%
気圧 1019 hPa
視程: 8000m
高度2300ftの雲は散在している

METAR: DTTA 210430Z VRB06KT 8000 SCT023 18/17 Q1019

時間: 06:06 (05:06 UTC)

予報

当レポートは6時間6分前の23:00(UTC)に作成
予報は21日の 00時(UTC)から 21日の 24時(UTC)まで有効
西/北西の風 5kt
視程10km以上
高度2300ftの雲は散在している
高度3300ftの雲は散在している
確率 40% :
21日の 00時(UTC)から 21日の 15時(UTC)まで一時的に
視程: 3000m
高度2300ftの雲は散在している
高度2600ftの雲は散在している, 積乱雲.
高度3300ftの雲は散在している
激しい雷雨, 小雨

TAF: DTTA 202300Z 2100/2124 29005KT 9999 SCT023 SCT033 PROB40 TEMPO 2100/2115 3000 -TSRA SCT023 SCT026CB SCT033

4,000以上の空港の気象観測と天気予報(METAR報とTAF報)

利用可能な観測所は地図上に黄色い丸と赤い丸で示す。

丸の上にカーソルを重ねると観測所名を参照できる。

次にクリックすると気象観測と天気予報を参照できる。

マップの切り替え:黒色「×」印の緑ボタンをクリックして拡大、「-」印の緑ボタンをクリックして縮小、緑色の三角印をクリックして隣りの地図に切り替え


METAR-TAF: